Time;durP1;ratioP1;P1;durP2;ratioP2;P2;SDS_P1;SDS_P2;PMS_P1;PMS_P2;Temp;Humidity;BMP_temperature;BMP_pressure;BME280_temperature;BME280_humidity;BME280_pressure;Samples;Min_cycle;Max_cycle;Signal;HPM_P1;HPM_P2
2022/01/02 00:01:20;;;;;;;7.50;2.50;;;;;;;;;;5087874;28;20056;-61
2022/01/02 00:03:51;;;;;;;5.60;2.50;;;;;;;;;;5089817;28;20058;-62
2022/01/02 00:06:23;;;;;;;9.53;3.00;;;;;;;;;;5092960;28;20034;-61
2022/01/02 00:08:53;;;;;;;9.57;2.83;;;;;;;;;;5092727;28;20028;-61
2022/01/02 00:11:23;;;;;;;6.07;2.90;;;;;;;;;;5092736;28;20482;-61
2022/01/02 00:13:50;;;;;;;4.23;2.77;;;;;;;;;;5092867;28;20052;-62
2022/01/02 00:16:18;;;;;;;8.40;2.60;;;;;;;;;;5090084;28;20024;-61
2022/01/02 00:18:52;;;;;;;7.90;2.30;;;;;;;;;;5087086;28;20459;-61
2022/01/02 00:21:21;;;;;;;3.90;2.00;;;;;;;;;;5087416;28;20036;-62
2022/01/02 00:23:58;;;;;;;6.73;2.00;;;;;;;;;;5087662;28;20044;-61
2022/01/02 00:26:34;;;;;;;4.53;1.90;;;;;;;;;;5090084;28;20032;-61
2022/01/02 00:29:05;;;;;;;5.60;2.00;;;;;;;;;;5091626;28;20028;-61
2022/01/02 00:31:32;;;;;;;3.73;1.87;;;;;;;;;;5092583;28;20089;-62
2022/01/02 00:34:00;;;;;;;4.53;1.73;;;;;;;;;;5092599;28;20020;-61
2022/01/02 00:36:27;;;;;;;15.03;2.73;;;;;;;;;;5092543;28;20027;-61
2022/01/02 00:38:54;;;;;;;5.50;1.90;;;;;;;;;;5089097;28;20036;-61
2022/01/02 00:41:26;;;;;;;7.17;1.67;;;;;;;;;;5087369;28;20016;-61
2022/01/02 00:43:59;;;;;;;5.77;2.03;;;;;;;;;;5087283;28;20031;-61
2022/01/02 00:46:27;;;;;;;4.20;1.92;;;;;;;;;;5087384;28;20432;-61
2022/01/02 00:48:57;;;;;;;4.03;2.40;;;;;;;;;;5090228;28;20031;-61
2022/01/02 00:51:32;;;;;;;4.27;2.23;;;;;;;;;;5092279;28;20032;-61
2022/01/02 00:54:01;;;;;;;5.37;2.07;;;;;;;;;;5092014;28;20024;-61
2022/01/02 00:56:29;;;;;;;5.47;2.00;;;;;;;;;;5092434;28;20024;-61
2022/01/02 00:59:03;;;;;;;3.27;2.20;;;;;;;;;;5092309;28;20024;-61
2022/01/02 01:01:35;;;;;;;6.25;2.30;;;;;;;;;;5090434;28;20024;-61
2022/01/02 01:04:03;;;;;;;4.87;2.37;;;;;;;;;;5091471;28;20069;-61
2022/01/02 01:06:34;;;;;;;6.87;2.10;;;;;;;;;;5091107;28;20031;-61
2022/01/02 01:09:02;;;;;;;5.67;2.30;;;;;;;;;;5090719;28;20477;-61
2022/01/02 01:11:30;;;;;;;9.20;2.80;;;;;;;;;;5094804;28;20073;-61
2022/01/02 01:13:58;;;;;;;5.67;1.90;;;;;;;;;;5096260;28;20097;-61
2022/01/02 01:16:25;;;;;;;4.37;2.13;;;;;;;;;;5096214;28;20016;-61
2022/01/02 01:18:53;;;;;;;9.03;2.30;;;;;;;;;;5095758;28;20052;-61
2022/01/02 01:21:20;;;;;;;8.37;2.50;;;;;;;;;;5096004;28;20111;-61
2022/01/02 01:23:47;;;;;;;8.57;2.17;;;;;;;;;;5091631;28;20055;-61
2022/01/02 01:26:16;;;;;;;5.77;2.23;;;;;;;;;;5090886;28;20412;-61
2022/01/02 01:28:44;;;;;;;8.03;1.97;;;;;;;;;;5090631;28;20505;-61
2022/01/02 01:31:11;;;;;;;9.57;2.37;;;;;;;;;;5090926;28;20471;-61
2022/01/02 01:33:38;;;;;;;14.17;3.77;;;;;;;;;;5094351;28;20077;-61
2022/01/02 01:36:05;;;;;;;6.70;2.43;;;;;;;;;;5096001;28;20020;-60
2022/01/02 01:38:33;;;;;;;5.37;2.60;;;;;;;;;;5094987;28;20066;-63
2022/01/02 01:41:04;;;;;;;11.40;3.77;;;;;;;;;;5095684;28;20028;-61
2022/01/02 01:43:51;;;;;;;8.73;3.50;;;;;;;;;;5095823;28;20081;-60
2022/01/02 01:46:18;;;;;;;6.57;2.67;;;;;;;;;;5090596;28;20371;-61
2022/01/02 01:48:55;;;;;;;7.17;2.93;;;;;;;;;;5090128;28;20020;-60
2022/01/02 01:51:23;;;;;;;9.53;2.90;;;;;;;;;;5090419;28;20119;-60
2022/01/02 01:53:50;;;;;;;9.53;2.63;;;;;;;;;;5090342;28;20032;-61
2022/01/02 01:56:17;;;;;;;12.17;4.93;;;;;;;;;;5094843;28;20028;-60
2022/01/02 01:58:45;;;;;;;13.57;5.10;;;;;;;;;;5095392;28;20043;-60
2022/01/02 02:01:12;;;;;;;12.60;5.17;;;;;;;;;;5095183;28;20031;-60
2022/01/02 02:03:42;;;;;;;8.97;3.97;;;;;;;;;;5094851;28;20032;-60
2022/01/02 02:06:09;;;;;;;13.40;3.50;;;;;;;;;;5095277;28;20028;-61
2022/01/02 02:08:36;;;;;;;16.03;4.23;;;;;;;;;;5090493;28;20031;-60
2022/01/02 02:11:03;;;;;;;14.67;4.80;;;;;;;;;;5089871;28;20036;-60
2022/01/02 02:13:31;;;;;;;12.67;5.27;;;;;;;;;;5089744;28;20024;-60
2022/01/02 02:16:00;;;;;;;13.27;4.67;;;;;;;;;;5090030;28;20547;-61
2022/01/02 02:18:27;;;;;;;9.27;4.83;;;;;;;;;;5093525;28;20028;-61
2022/01/02 02:20:54;;;;;;;12.67;4.80;;;;;;;;;;5094781;28;20478;-60
2022/01/02 02:23:21;;;;;;;14.17;6.90;;;;;;;;;;5094561;28;20035;-60
2022/01/02 02:25:48;;;;;;;12.47;5.00;;;;;;;;;;5094976;28;20024;-60
2022/01/02 02:28:16;;;;;;;8.83;4.17;;;;;;;;;;5094830;28;20027;-60
2022/01/02 02:30:44;;;;;;;7.00;3.60;;;;;;;;;;5090035;28;20031;-60
2022/01/02 02:33:12;;;;;;;6.73;3.30;;;;;;;;;;5089349;28;20024;-60
2022/01/02 02:35:40;;;;;;;9.87;4.43;;;;;;;;;;5089611;28;20046;-60
2022/01/02 02:38:08;;;;;;;7.23;3.60;;;;;;;;;;5089414;28;20016;-61
2022/01/02 02:40:36;;;;;;;7.77;3.03;;;;;;;;;;5093459;28;20028;-60
2022/01/02 02:43:26;;;;;;;12.10;3.67;;;;;;;;;;5094453;28;20062;-60
2022/01/02 02:51:41;;;;;;;7.30;3.40;;;;;;;;;;5092625;28;20097;-60
2022/01/02 02:54:09;;;;;;;7.85;4.88;;;;;;;;;;5088975;28;20074;-60
2022/01/02 02:56:53;;;;;;;11.23;4.70;;;;;;;;;;5088854;28;20113;-61
2022/01/02 02:59:20;;;;;;;5.80;3.10;;;;;;;;;;5089179;28;20040;-60
2022/01/02 03:01:47;;;;;;;4.97;2.83;;;;;;;;;;5090624;28;20017;-60
2022/01/02 03:04:16;;;;;;;5.50;3.07;;;;;;;;;;5094098;28;20395;-62
2022/01/02 03:06:43;;;;;;;10.60;3.20;;;;;;;;;;5094122;28;20028;-60
2022/01/02 03:09:10;;;;;;;15.27;3.27;;;;;;;;;;5094096;28;20016;-60
2022/01/02 03:11:39;;;;;;;6.67;3.60;;;;;;;;;;5092955;28;20488;-60
2022/01/02 03:14:07;;;;;;;12.97;4.43;;;;;;;;;;5091418;28;20036;-60
2022/01/02 03:16:37;;;;;;;11.80;2.90;;;;;;;;;;5088472;28;20059;-61
2022/01/02 03:19:04;;;;;;;9.83;3.10;;;;;;;;;;5088679;28;20047;-60
2022/01/02 03:21:31;;;;;;;10.70;2.87;;;;;;;;;;5088632;28;20020;-60
2022/01/02 03:23:59;;;;;;;7.70;2.80;;;;;;;;;;5089631;28;20028;-60
2022/01/02 03:26:26;;;;;;;9.43;3.37;;;;;;;;;;5093773;28;20028;-60
2022/01/02 03:28:53;;;;;;;10.77;3.13;;;;;;;;;;5093482;28;20514;-60
2022/01/02 03:31:20;;;;;;;7.63;2.30;;;;;;;;;;5092784;28;20030;-60
2022/01/02 03:33:47;;;;;;;6.33;2.27;;;;;;;;;;5093702;28;20043;-59
2022/01/02 03:36:15;;;;;;;6.70;2.97;;;;;;;;;;5091461;28;20020;-60
2022/01/02 03:38:42;;;;;;;7.53;2.80;;;;;;;;;;5088449;28;20028;-59
2022/01/02 03:41:09;;;;;;;5.57;3.17;;;;;;;;;;5088346;28;20485;-60
2022/01/02 03:43:36;;;;;;;10.93;2.73;;;;;;;;;;5088134;28;20020;-60
2022/01/02 03:46:04;;;;;;;7.13;3.13;;;;;;;;;;5089386;28;20055;-59
2022/01/02 03:48:34;;;;;;;8.63;3.30;;;;;;;;;;5093206;28;20060;-60
2022/01/02 03:51:01;;;;;;;6.10;2.70;;;;;;;;;;5093277;28;20390;-60
2022/01/02 03:53:28;;;;;;;7.67;2.70;;;;;;;;;;5093189;28;20566;-60
2022/01/02 03:55:55;;;;;;;7.40;2.90;;;;;;;;;;5092805;28;20042;-59
2022/01/02 03:58:22;;;;;;;6.13;3.00;;;;;;;;;;5091316;28;20537;-60
2022/01/02 04:00:49;;;;;;;5.97;2.10;;;;;;;;;;5088003;28;20069;-60
2022/01/02 04:03:17;;;;;;;6.23;2.33;;;;;;;;;;5087509;28;20444;-59
2022/01/02 04:05:44;;;;;;;7.37;2.60;;;;;;;;;;5087826;28;20032;-60
2022/01/02 04:08:12;;;;;;;5.77;2.63;;;;;;;;;;5089236;28;20095;-60
2022/01/02 04:10:39;;;;;;;5.63;2.13;;;;;;;;;;5092729;28;20089;-60
2022/01/02 04:13:06;;;;;;;3.80;2.10;;;;;;;;;;5092861;28;20035;-60
2022/01/02 04:15:34;;;;;;;8.33;2.30;;;;;;;;;;5092765;28;20040;-60
2022/01/02 04:18:01;;;;;;;3.47;1.93;;;;;;;;;;5091860;28;20059;-60
2022/01/02 04:20:28;;;;;;;5.63;2.33;;;;;;;;;;5090973;28;20089;-59
2022/01/02 04:22:54;;;;;;;5.70;2.00;;;;;;;;;;5087769;28;20024;-59
2022/01/02 04:25:22;;;;;;;4.17;2.40;;;;;;;;;;5087743;28;20081;-59
2022/01/02 04:27:49;;;;;;;5.30;1.50;;;;;;;;;;5087682;28;20020;-59
2022/01/02 04:30:16;;;;;;;4.80;1.70;;;;;;;;;;5088411;28;20036;-59
2022/01/02 04:32:43;;;;;;;3.73;2.03;;;;;;;;;;5092609;28;20020;-59
2022/01/02 04:35:10;;;;;;;4.43;1.87;;;;;;;;;;5092067;28;20021;-59
2022/01/02 04:37:37;;;;;;;6.37;2.10;;;;;;;;;;5092486;28;20035;-60
2022/01/02 04:40:04;;;;;;;3.20;1.77;;;;;;;;;;5091958;28;20040;-59
2022/01/02 04:42:31;;;;;;;3.17;1.60;;;;;;;;;;5091220;28;20024;-60
2022/01/02 04:44:59;;;;;;;3.90;1.80;;;;;;;;;;5087450;28;20052;-59
2022/01/02 04:47:26;;;;;;;4.20;1.80;;;;;;;;;;5087392;28;20032;-59
2022/01/02 04:49:53;;;;;;;6.10;2.33;;;;;;;;;;5086819;28;20107;-60
2022/01/02 04:52:20;;;;;;;4.47;2.30;;;;;;;;;;5087759;28;20024;-59
2022/01/02 04:54:47;;;;;;;4.30;1.93;;;;;;;;;;5092209;28;20016;-60
2022/01/02 04:57:14;;;;;;;3.17;1.70;;;;;;;;;;5092698;28;20073;-59
2022/01/02 04:59:41;;;;;;;3.40;1.80;;;;;;;;;;5092083;28;20110;-59
2022/01/02 05:02:08;;;;;;;3.57;2.17;;;;;;;;;;5092149;28;20098;-59
2022/01/02 05:04:35;;;;;;;5.07;2.00;;;;;;;;;;5091270;28;20436;-60
2022/01/02 05:07:02;;;;;;;4.60;1.97;;;;;;;;;;5087106;28;20077;-60
2022/01/02 05:09:29;;;;;;;9.50;2.27;;;;;;;;;;5087372;28;20511;-60
2022/01/02 05:11:56;;;;;;;4.90;2.23;;;;;;;;;;5086959;28;20036;-59
2022/01/02 05:14:23;;;;;;;4.07;2.23;;;;;;;;;;5087244;28;20474;-60
2022/01/02 05:16:50;;;;;;;3.87;2.00;;;;;;;;;;5092300;28;20389;-60
2022/01/02 05:19:17;;;;;;;4.47;1.97;;;;;;;;;;5092048;28;20093;-60
2022/01/02 05:21:44;;;;;;;4.77;1.70;;;;;;;;;;5091865;28;20024;-60
2022/01/02 05:24:10;;;;;;;5.47;2.40;;;;;;;;;;5091805;28;20032;-59
2022/01/02 05:26:37;;;;;;;4.50;2.40;;;;;;;;;;5091756;28;20027;-59
2022/01/02 05:29:05;;;;;;;4.73;1.80;;;;;;;;;;5086602;28;20029;-59
2022/01/02 05:31:32;;;;;;;3.77;2.07;;;;;;;;;;5086807;28;20028;-59
2022/01/02 05:33:59;;;;;;;9.10;1.83;;;;;;;;;;5087029;28;20024;-59
2022/01/02 05:36:26;;;;;;;5.10;1.80;;;;;;;;;;5086726;28;20127;-59
2022/01/02 05:38:52;;;;;;;4.40;2.37;;;;;;;;;;5091813;28;20065;-59
2022/01/02 05:41:19;;;;;;;3.50;1.97;;;;;;;;;;5092022;28;20044;-59
2022/01/02 05:43:46;;;;;;;3.97;1.87;;;;;;;;;;5091980;28;20478;-59
2022/01/02 05:46:13;;;;;;;4.10;2.50;;;;;;;;;;5091856;28;20107;-59
2022/01/02 05:48:40;;;;;;;3.33;1.97;;;;;;;;;;5095017;28;20134;-60
2022/01/02 05:51:07;;;;;;;3.13;1.67;;;;;;;;;;5090411;28;20024;-59
2022/01/02 05:53:33;;;;;;;2.90;1.80;;;;;;;;;;5089967;28;20028;-59
2022/01/02 05:56:00;;;;;;;3.17;1.80;;;;;;;;;;5090416;28;21417;-60
2022/01/02 05:58:27;;;;;;;6.33;2.10;;;;;;;;;;5090336;28;20597;-59
2022/01/02 06:00:54;;;;;;;4.07;2.07;;;;;;;;;;5094639;28;20094;-59
2022/01/02 06:03:20;;;;;;;7.43;2.07;;;;;;;;;;5095187;28;20045;-59
2022/01/02 06:05:47;;;;;;;6.17;2.27;;;;;;;;;;5095273;28;20020;-59
2022/01/02 06:08:14;;;;;;;7.17;1.87;;;;;;;;;;5095378;28;20020;-59
2022/01/02 06:10:41;;;;;;;5.60;2.17;;;;;;;;;;5094505;28;20099;-59
2022/01/02 06:13:08;;;;;;;4.17;2.23;;;;;;;;;;5090372;28;20032;-59
2022/01/02 06:15:34;;;;;;;4.80;2.13;;;;;;;;;;5090048;28;20024;-59
2022/01/02 06:18:01;;;;;;;7.57;1.97;;;;;;;;;;5089945;28;20016;-59
2022/01/02 06:20:28;;;;;;;5.27;2.40;;;;;;;;;;5089673;28;20135;-59
2022/01/02 06:22:55;;;;;;;6.47;2.00;;;;;;;;;;5093672;28;20093;-59
2022/01/02 06:25:22;;;;;;;3.70;2.10;;;;;;;;;;5094499;28;20050;-59
2022/01/02 06:27:49;;;;;;;3.67;1.90;;;;;;;;;;5095138;28;20022;-59
2022/01/02 06:30:16;;;;;;;5.17;2.13;;;;;;;;;;5094920;28;20020;-59
2022/01/02 06:32:43;;;;;;;4.57;1.80;;;;;;;;;;5094529;28;20055;-59
2022/01/02 06:35:10;;;;;;;5.93;2.17;;;;;;;;;;5090508;28;20020;-59
2022/01/02 06:37:37;;;;;;;3.93;2.30;;;;;;;;;;5089423;28;20028;-59
2022/01/02 06:40:04;;;;;;;3.77;2.00;;;;;;;;;;5089613;28;20069;-59
2022/01/02 06:42:31;;;;;;;4.70;2.13;;;;;;;;;;5089035;28;20077;-59
2022/01/02 06:44:58;;;;;;;5.33;2.07;;;;;;;;;;5093005;28;20031;-59
2022/01/02 06:47:25;;;;;;;3.83;1.90;;;;;;;;;;5094469;28;20102;-59
2022/01/02 06:49:51;;;;;;;3.27;1.50;;;;;;;;;;5094402;28;20352;-60
2022/01/02 06:52:18;;;;;;;3.47;1.87;;;;;;;;;;5094416;28;20107;-59
2022/01/02 06:54:45;;;;;;;4.63;2.37;;;;;;;;;;5093846;28;20025;-59
2022/01/02 06:57:12;;;;;;;4.33;1.80;;;;;;;;;;5090214;28;20568;-59
2022/01/02 06:59:39;;;;;;;5.70;2.43;;;;;;;;;;5089117;28;20494;-59
2022/01/02 07:02:05;;;;;;;4.00;2.20;;;;;;;;;;5088927;28;20111;-59
2022/01/02 07:04:32;;;;;;;2.90;1.60;;;;;;;;;;5089039;28;20028;-59
2022/01/02 07:06:59;;;;;;;4.83;2.37;;;;;;;;;;5092412;28;20376;-59
2022/01/02 07:09:27;;;;;;;3.53;2.00;;;;;;;;;;5094376;28;20399;-59
2022/01/02 07:11:53;;;;;;;3.63;2.20;;;;;;;;;;5093760;28;20028;-59
2022/01/02 07:14:20;;;;;;;2.80;1.70;;;;;;;;;;5093542;28;20024;-59
2022/01/02 07:16:47;;;;;;;3.87;2.07;;;;;;;;;;5094047;28;20115;-59
2022/01/02 07:19:14;;;;;;;5.13;2.23;;;;;;;;;;5089551;28;20040;-59
2022/01/02 07:21:41;;;;;;;3.47;2.03;;;;;;;;;;5088674;28;20027;-60
2022/01/02 07:24:07;;;;;;;5.20;2.30;;;;;;;;;;5088727;28;20028;-59
2022/01/02 07:26:34;;;;;;;4.10;1.80;;;;;;;;;;5088606;28;20393;-59
2022/01/02 07:29:01;;;;;;;6.73;2.03;;;;;;;;;;5090863;28;20508;-59
2022/01/02 07:31:28;;;;;;;7.00;2.43;;;;;;;;;;5093712;28;20366;-59
2022/01/02 07:33:54;;;;;;;4.20;2.33;;;;;;;;;;5093693;28;20027;-59
2022/01/02 07:36:21;;;;;;;8.70;2.60;;;;;;;;;;5093546;28;20099;-59
2022/01/02 07:38:48;;;;;;;8.07;2.70;;;;;;;;;;5093518;28;20020;-59
2022/01/02 07:41:15;;;;;;;7.20;3.00;;;;;;;;;;5089903;28;20040;-59
2022/01/02 07:43:42;;;;;;;3.33;1.93;;;;;;;;;;5088350;28;20470;-59
2022/01/02 07:46:08;;;;;;;3.93;2.17;;;;;;;;;;5087932;28;20103;-59
2022/01/02 07:48:35;;;;;;;6.70;2.30;;;;;;;;;;5088116;28;20841;-60
2022/01/02 07:51:02;;;;;;;4.20;1.83;;;;;;;;;;5090690;28;20031;-59
2022/01/02 07:53:29;;;;;;;3.37;1.73;;;;;;;;;;5093252;28;20085;-60
2022/01/02 07:55:55;;;;;;;6.37;1.90;;;;;;;;;;5093094;28;20051;-59
2022/01/02 07:58:22;;;;;;;2.43;1.70;;;;;;;;;;5093006;28;20362;-59
2022/01/02 08:00:50;;;;;;;4.40;1.93;;;;;;;;;;5092216;28;20512;-59
2022/01/02 08:03:17;;;;;;;3.30;1.60;;;;;;;;;;5089760;28;20044;-60
2022/01/02 08:05:44;;;;;;;3.93;1.70;;;;;;;;;;5087957;28;20028;-59
2022/01/02 08:08:10;;;;;;;4.33;1.80;;;;;;;;;;5087872;28;20024;-59
2022/01/02 08:10:39;;;;;;;3.13;1.57;;;;;;;;;;5087466;28;20031;-59
2022/01/02 08:13:05;;;;;;;4.67;2.03;;;;;;;;;;5090084;28;20020;-59
2022/01/02 08:15:32;;;;;;;4.73;2.13;;;;;;;;;;5092547;28;20024;-59
2022/01/02 08:17:59;;;;;;;7.30;2.93;;;;;;;;;;5092704;28;20028;-59
2022/01/02 08:20:27;;;;;;;3.40;1.90;;;;;;;;;;5092602;28;20057;-60
2022/01/02 08:22:56;;;;;;;4.23;1.80;;;;;;;;;;5092698;28;20263;-58
2022/01/02 08:25:24;;;;;;;5.23;2.33;;;;;;;;;;5089655;28;20026;-59
2022/01/02 08:27:51;;;;;;;4.13;2.00;;;;;;;;;;5087525;28;20172;-59
2022/01/02 08:30:17;;;;;;;3.93;2.10;;;;;;;;;;5087129;28;20256;-59
2022/01/02 08:32:44;;;;;;;6.27;2.20;;;;;;;;;;5087546;28;20263;-59
2022/01/02 08:35:11;;;;;;;5.50;2.50;;;;;;;;;;5089642;28;20023;-58
2022/01/02 08:37:39;;;;;;;4.93;1.80;;;;;;;;;;5092625;28;20036;-59
2022/01/02 08:40:06;;;;;;;8.07;1.90;;;;;;;;;;5091728;28;20382;-59
2022/01/02 08:42:33;;;;;;;5.17;2.30;;;;;;;;;;5092632;28;20292;-59
2022/01/02 08:44:59;;;;;;;4.20;2.00;;;;;;;;;;5092410;28;20047;-59
2022/01/02 08:47:26;;;;;;;6.00;2.00;;;;;;;;;;5089998;28;20264;-58
2022/01/02 08:49:53;;;;;;;4.97;2.10;;;;;;;;;;5087425;28;20690;-59
2022/01/02 08:52:20;;;;;;;4.80;1.73;;;;;;;;;;5087112;28;20874;-59
2022/01/02 08:54:47;;;;;;;3.80;1.90;;;;;;;;;;5087046;28;20743;-59
2022/01/02 08:57:14;;;;;;;3.43;1.97;;;;;;;;;;5089405;28;20273;-59
2022/01/02 08:59:41;;;;;;;3.93;2.10;;;;;;;;;;5092119;28;20674;-58
2022/01/02 09:02:08;;;;;;;4.57;2.27;;;;;;;;;;5091701;28;20272;-59
2022/01/02 09:04:35;;;;;;;3.10;1.80;;;;;;;;;;5092347;28;20569;-59
2022/01/02 09:07:02;;;;;;;4.00;1.97;;;;;;;;;;5092192;28;20268;-58
2022/01/02 09:09:29;;;;;;;2.80;1.73;;;;;;;;;;5089667;28;20837;-59
2022/01/02 09:11:55;;;;;;;5.20;2.03;;;;;;;;;;5087203;28;20261;-59
2022/01/02 09:14:22;;;;;;;6.03;2.40;;;;;;;;;;5087025;28;20284;-59
2022/01/02 09:16:49;;;;;;;5.33;2.00;;;;;;;;;;5086447;28;20272;-58
2022/01/02 09:19:16;;;;;;;3.10;2.00;;;;;;;;;;5088856;28;20324;-58
2022/01/02 09:21:43;;;;;;;6.67;2.63;;;;;;;;;;5092673;28;20318;-59
2022/01/02 09:24:09;;;;;;;6.30;2.30;;;;;;;;;;5096086;28;20264;-58
2022/01/02 09:26:36;;;;;;;4.43;2.00;;;;;;;;;;5095884;28;20289;-58
2022/01/02 09:29:04;;;;;;;4.50;2.37;;;;;;;;;;5095969;28;20279;-59
2022/01/02 09:31:30;;;;;;;6.80;2.67;;;;;;;;;;5093609;28;20260;-58
2022/01/02 09:33:57;;;;;;;3.67;2.30;;;;;;;;;;5090926;28;20257;-58
2022/01/02 09:36:24;;;;;;;7.53;2.40;;;;;;;;;;5090870;28;20371;-59
2022/01/02 09:38:51;;;;;;;5.10;2.40;;;;;;;;;;5090559;28;20356;-59
2022/01/02 09:41:19;;;;;;;3.27;1.97;;;;;;;;;;5092103;28;20280;-59
2022/01/02 09:43:50;;;;;;;6.80;3.67;;;;;;;;;;5095452;28;20261;-59
2022/01/02 09:46:23;;;;;;;4.30;2.30;;;;;;;;;;5095542;28;20249;-58
2022/01/02 09:48:51;;;;;;;4.30;2.10;;;;;;;;;;5095732;28;20264;-59
2022/01/02 09:51:18;;;;;;;4.93;2.83;;;;;;;;;;5095681;28;20678;-59
2022/01/02 09:53:46;;;;;;;5.43;2.57;;;;;;;;;;5092862;28;20303;-59
2022/01/02 09:56:13;;;;;;;4.07;2.53;;;;;;;;;;5090446;28;20252;-59
2022/01/02 09:58:42;;;;;;;7.93;2.43;;;;;;;;;;5090370;28;20253;-58
2022/01/02 10:01:15;;;;;;;4.60;2.40;;;;;;;;;;5089649;28;20289;-59
2022/01/02 10:03:46;;;;;;;3.70;2.13;;;;;;;;;;5092172;28;20261;-58
2022/01/02 10:06:14;;;;;;;4.67;2.50;;;;;;;;;;5094854;28;20261;-59
2022/01/02 10:08:41;;;;;;;7.00;2.97;;;;;;;;;;5095264;28;20390;-58
2022/01/02 10:11:16;;;;;;;6.17;2.50;;;;;;;;;;5095019;28;20260;-58
2022/01/02 10:13:45;;;;;;;5.03;2.50;;;;;;;;;;5095130;28;20264;-59
2022/01/02 10:16:21;;;;;;;5.90;2.47;;;;;;;;;;5092035;28;20028;-59
2022/01/02 10:18:49;;;;;;;4.73;2.67;;;;;;;;;;5089932;28;20288;-58
2022/01/02 10:21:34;;;;;;;4.83;2.23;;;;;;;;;;5089373;28;20285;-58
2022/01/02 10:24:11;;;;;;;7.40;2.67;;;;;;;;;;5089859;28;20260;-59
2022/01/02 10:26:37;;;;;;;4.40;2.20;;;;;;;;;;5093366;28;20061;-58
2022/01/02 10:29:12;;;;;;;3.73;2.03;;;;;;;;;;5094839;28;20256;-58
2022/01/02 10:31:38;;;;;;;4.13;2.23;;;;;;;;;;5094414;28;20738;-58
2022/01/02 10:34:05;;;;;;;3.33;2.17;;;;;;;;;;5094095;28;20390;-58
2022/01/02 10:36:42;;;;;;;4.37;2.37;;;;;;;;;;5094848;28;20290;-58
2022/01/02 10:39:18;;;;;;;3.80;2.00;;;;;;;;;;5089971;28;20299;-59
2022/01/02 10:41:46;;;;;;;5.03;1.90;;;;;;;;;;5089286;28;20260;-59
2022/01/02 10:44:34;;;;;;;4.03;2.30;;;;;;;;;;5089421;28;21159;-58
2022/01/02 10:47:17;;;;;;;5.87;2.00;;;;;;;;;;5089457;28;20736;-59
2022/01/02 10:49:53;;;;;;;3.47;2.07;;;;;;;;;;5094074;28;20683;-59
2022/01/02 10:52:24;;;;;;;4.23;2.00;;;;;;;;;;5094125;28;20249;-58
2022/01/02 10:54:52;;;;;;;3.57;1.80;;;;;;;;;;5094223;28;20276;-58
2022/01/02 10:57:18;;;;;;;3.33;1.83;;;;;;;;;;5094268;28;20272;-59
2022/01/02 10:59:46;;;;;;;5.73;2.33;;;;;;;;;;5092946;28;20284;-59
2022/01/02 11:02:14;;;;;;;3.70;2.17;;;;;;;;;;5088458;28;20297;-58
2022/01/02 11:04:46;;;;;;;6.27;2.70;;;;;;;;;;5088498;28;20317;-58
2022/01/02 11:07:15;;;;;;;3.13;1.70;;;;;;;;;;5088962;28;20672;-58
2022/01/02 11:09:42;;;;;;;4.37;2.70;;;;;;;;;;5089462;28;20253;-58
2022/01/02 11:12:09;;;;;;;5.57;2.70;;;;;;;;;;5094006;28;20257;-59
2022/01/02 11:14:36;;;;;;;3.93;2.57;;;;;;;;;;5094014;28;20307;-58
2022/01/02 11:17:03;;;;;;;4.47;2.40;;;;;;;;;;5093722;28;20269;-58
2022/01/02 11:19:30;;;;;;;4.83;2.60;;;;;;;;;;5093955;28;20831;-58
2022/01/02 11:21:58;;;;;;;6.27;2.03;;;;;;;;;;5092629;28;20270;-58
2022/01/02 11:24:26;;;;;;;4.27;2.37;;;;;;;;;;5088748;28;20263;-58
2022/01/02 11:27:11;;;;;;;5.00;3.20;;;;;;;;;;5088263;28;20746;-58
2022/01/02 11:29:38;;;;;;;4.55;2.63;;;;;;;;;;5088609;28;20253;-59
2022/01/02 11:32:23;;;;;;;4.00;2.00;;;;;;;;;;5089909;28;20087;-58
2022/01/02 11:34:50;;;;;;;5.45;2.22;;;;;;;;;;5073469;28;20334;-58
2022/01/02 11:37:27;;;;;;;5.93;2.47;;;;;;;;;;5073073;28;20111;-58
2022/01/02 11:39:59;;;;;;;4.03;2.00;;;;;;;;;;5072903;28;20300;-58
2022/01/02 11:42:38;;;;;;;4.93;2.43;;;;;;;;;;5072913;28;20752;-59
2022/01/02 11:45:06;;;;;;;3.57;2.13;;;;;;;;;;5069018;28;20258;-58
2022/01/02 11:47:42;;;;;;;5.17;2.30;;;;;;;;;;5069996;28;20265;-58
2022/01/02 11:50:27;;;;;;;6.83;2.40;;;;;;;;;;5088183;28;20265;-59
2022/01/02 11:53:12;;;;;;;4.00;2.33;;;;;;;;;;5088202;28;20271;-58
2022/01/02 11:55:39;;;;;;;4.22;2.17;;;;;;;;;;5092490;28;20059;-58
2022/01/02 11:58:06;;;;;;;5.23;2.30;;;;;;;;;;5093341;28;20106;-58
2022/01/02 12:00:34;;;;;;;7.80;2.70;;;;;;;;;;5092845;28;20280;-58
2022/01/02 12:03:01;;;;;;;4.83;2.53;;;;;;;;;;5093009;28;20256;-58
2022/01/02 12:05:28;;;;;;;5.83;2.47;;;;;;;;;;5092896;28;20743;-58
2022/01/02 12:07:54;;;;;;;4.03;2.30;;;;;;;;;;5087733;28;20256;-59
2022/01/02 12:10:27;;;;;;;4.87;2.27;;;;;;;;;;5087732;28;20264;-59
2022/01/02 12:13:22;;;;;;;4.70;2.60;;;;;;;;;;5087854;28;20257;-58
2022/01/02 12:15:51;;;;;;;5.13;3.00;;;;;;;;;;5087771;28;20267;-59
2022/01/02 12:18:26;;;;;;;4.07;2.33;;;;;;;;;;5093135;28;20066;-59
2022/01/02 12:20:53;;;;;;;4.47;2.20;;;;;;;;;;5092645;28;20669;-58
2022/01/02 12:25:59;;;;;;;7.30;2.83;;;;;;;;;;5092693;28;20261;-59
2022/01/02 12:28:26;;;;;;;6.00;3.00;;;;;;;;;;5091146;28;20264;-58
2022/01/02 12:30:53;;;;;;;7.17;3.43;;;;;;;;;;5087077;28;20388;-58
2022/01/02 12:33:26;;;;;;;5.10;2.70;;;;;;;;;;5087372;28;20283;-59
2022/01/02 12:35:52;;;;;;;5.27;2.23;;;;;;;;;;5087502;28;20325;-59
2022/01/02 12:38:19;;;;;;;3.47;2.07;;;;;;;;;;5088283;28;20244;-58
2022/01/02 12:40:49;;;;;;;5.70;2.67;;;;;;;;;;5092012;28;20627;-58
2022/01/02 12:43:23;;;;;;;10.13;2.70;;;;;;;;;;5092471;28;20322;-58
2022/01/02 12:45:55;;;;;;;4.33;2.30;;;;;;;;;;5092472;28;20253;-58
2022/01/02 12:48:35;;;;;;;5.27;2.10;;;;;;;;;;5092494;28;20257;-58
2022/01/02 12:51:12;;;;;;;4.97;2.80;;;;;;;;;;5089233;28;20291;-60
2022/01/02 12:53:39;;;;;;;4.07;2.03;;;;;;;;;;5066978;28;20719;-58
2022/01/02 12:56:05;;;;;;;6.07;2.93;;;;;;;;;;5068750;28;20284;-58
2022/01/02 12:58:34;;;;;;;4.80;2.73;;;;;;;;;;5071316;28;20261;-58
2022/01/02 13:01:06;;;;;;;4.90;2.40;;;;;;;;;;5073117;28;20324;-59
2022/01/02 13:03:34;;;;;;;7.67;2.93;;;;;;;;;;5076024;28;20349;-58
2022/01/02 13:06:00;;;;;;;3.73;2.20;;;;;;;;;;5076069;28;20269;-58
2022/01/02 13:08:27;;;;;;;6.83;2.63;;;;;;;;;;5075940;28;20268;-58
2022/01/02 13:10:54;;;;;;;5.27;3.20;;;;;;;;;;5076033;28;20293;-58
2022/01/02 13:13:28;;;;;;;11.30;3.47;;;;;;;;;;5073115;28;20596;-59
2022/01/02 13:15:55;;;;;;;9.73;3.47;;;;;;;;;;5089276;28;20279;-58
2022/01/02 13:18:21;;;;;;;5.47;2.93;;;;;;;;;;5091180;28;20257;-59
2022/01/02 13:20:48;;;;;;;6.93;3.03;;;;;;;;;;5090930;28;20694;-58
2022/01/02 13:23:15;;;;;;;6.63;3.00;;;;;;;;;;5093072;28;20249;-58
2022/01/02 13:25:45;;;;;;;10.27;2.93;;;;;;;;;;5095610;28;20280;-58
2022/01/02 13:28:16;;;;;;;7.60;3.80;;;;;;;;;;5095837;28;20347;-59
2022/01/02 13:30:53;;;;;;;6.80;3.50;;;;;;;;;;5095370;28;20256;-59
2022/01/02 13:33:26;;;;;;;4.17;2.57;;;;;;;;;;5096145;28;20345;-58
2022/01/02 13:35:55;;;;;;;4.57;2.73;;;;;;;;;;5092287;28;20336;-58
2022/01/02 13:38:22;;;;;;;5.33;3.00;;;;;;;;;;5090611;28;20747;-58
2022/01/02 13:40:49;;;;;;;9.73;3.53;;;;;;;;;;5090367;28;20368;-59
2022/01/02 13:43:20;;;;;;;7.53;3.47;;;;;;;;;;5090716;28;20769;-58
2022/01/02 13:45:48;;;;;;;5.80;2.87;;;;;;;;;;5093325;28;20673;-58
2022/01/02 13:48:16;;;;;;;6.23;3.27;;;;;;;;;;5095574;28;20257;-58
2022/01/02 13:50:44;;;;;;;6.43;3.60;;;;;;;;;;5095546;28;20274;-58
2022/01/02 13:53:24;;;;;;;12.10;3.03;;;;;;;;;;5095497;28;20257;-58
2022/01/02 13:55:53;;;;;;;8.10;3.57;;;;;;;;;;5095469;28;20770;-58
2022/01/02 13:58:27;;;;;;;10.40;4.83;;;;;;;;;;5090747;28;20309;-58
2022/01/02 14:00:55;;;;;;;7.47;3.43;;;;;;;;;;5090394;28;20292;-58
2022/01/02 14:03:25;;;;;;;6.77;4.00;;;;;;;;;;5090344;28;20252;-58
2022/01/02 14:05:52;;;;;;;10.70;3.70;;;;;;;;;;5089847;28;20268;-58
2022/01/02 14:08:20;;;;;;;5.77;3.60;;;;;;;;;;5093300;28;20280;-58
2022/01/02 14:10:47;;;;;;;9.37;4.63;;;;;;;;;;5095213;28;20264;-58
2022/01/02 14:13:16;;;;;;;10.20;4.23;;;;;;;;;;5095349;28;20261;-58
2022/01/02 14:15:59;;;;;;;8.30;4.87;;;;;;;;;;5094959;28;20264;-58
2022/01/02 14:18:29;;;;;;;10.60;4.40;;;;;;;;;;5095058;28;20263;-58
2022/01/02 14:21:02;;;;;;;12.93;3.80;;;;;;;;;;5089970;28;20399;-58
2022/01/02 14:23:29;;;;;;;8.53;3.87;;;;;;;;;;5089903;28;20370;-58
2022/01/02 14:25:57;;;;;;;8.20;3.70;;;;;;;;;;5089885;28;20731;-59
2022/01/02 14:28:24;;;;;;;5.90;3.37;;;;;;;;;;5089570;28;20062;-59
2022/01/02 14:30:52;;;;;;;5.43;3.20;;;;;;;;;;5093838;28;20023;-58
2022/01/02 14:33:21;;;;;;;9.13;5.17;;;;;;;;;;5094299;28;20036;-59
2022/01/02 14:35:48;;;;;;;7.63;4.20;;;;;;;;;;5094534;28;20035;-59
2022/01/02 14:38:15;;;;;;;6.37;3.67;;;;;;;;;;5094626;28;20020;-59
2022/01/02 14:40:42;;;;;;;8.10;4.07;;;;;;;;;;5094160;28;20028;-59
2022/01/02 14:43:09;;;;;;;10.50;4.10;;;;;;;;;;5089202;28;20028;-59
2022/01/02 14:45:36;;;;;;;12.73;6.30;;;;;;;;;;5089457;28;20024;-58
2022/01/02 14:48:02;;;;;;;7.00;3.47;;;;;;;;;;5089601;28;20035;-59
2022/01/02 14:50:29;;;;;;;6.23;3.70;;;;;;;;;;5088779;28;20467;-59
2022/01/02 14:52:56;;;;;;;6.10;3.20;;;;;;;;;;5094267;28;20423;-59
2022/01/02 14:55:23;;;;;;;8.77;3.13;;;;;;;;;;5094562;28;20028;-59
2022/01/02 14:57:49;;;;;;;6.60;3.30;;;;;;;;;;5093972;28;20032;-59